createdAt,value
2022-09-09T11:10:37.094Z,97051.72
2022-09-09T11:13:52.490Z,97058.03
2022-09-09T11:17:01.631Z,97051.44
2022-09-09T11:20:08.082Z,97047.97
2022-09-09T11:23:15.781Z,97048.13
2022-09-09T11:26:26.417Z,97047.72
2022-09-09T11:30:04.883Z,97059.47
2022-09-09T11:33:37.060Z,97061.53
2022-09-09T11:36:59.689Z,97053.84
2022-09-09T11:40:16.625Z,97062.25
2022-09-09T11:43:29.062Z,97065.56
2022-09-09T11:46:36.465Z,97057.75
2022-09-09T11:49:43.711Z,97057.84
2022-09-09T11:52:48.400Z,97068.25
2022-09-09T11:56:07.875Z,97062.66
2022-09-09T11:59:23.117Z,97070.63
2022-09-09T12:02:28.567Z,97066.38
2022-09-09T12:05:40.411Z,97062.25
2022-09-09T12:08:45.872Z,97051.16
2022-09-09T12:11:48.721Z,97050.75
2022-09-09T12:15:02.480Z,97045.50
2022-09-09T12:18:16.786Z,97043.69
2022-09-09T12:21:34.507Z,97040.69
2022-09-09T12:24:44.539Z,97034.50
2022-09-09T12:27:59.283Z,97024.69
2022-09-09T12:31:11.095Z,97035.59
2022-09-09T12:34:19.879Z,97030.06
2022-09-09T12:37:31.279Z,97028.47
2022-09-09T12:40:37.087Z,97028.66
2022-09-09T12:43:39.838Z,97027.00
2022-09-09T12:46:47.722Z,97028.91
2022-09-09T12:49:52.182Z,97024.00
2022-09-09T12:52:58.109Z,97015.56
2022-09-09T12:56:04.277Z,97015.72
2022-09-09T12:59:07.029Z,97018.13
2022-09-09T13:02:22.058Z,97035.94
2022-09-09T13:05:26.654Z,97026.97
2022-09-09T13:08:29.588Z,97018.78
2022-09-09T13:11:37.732Z,97027.00
2022-09-09T13:14:40.658Z,97030.13
2022-09-09T13:17:45.803Z,97030.19
2022-09-09T13:20:49.746Z,97033.06
2022-09-09T13:23:54.191Z,97032.34
2022-09-09T13:26:58.541Z,97031.06
2022-09-09T13:30:01.661Z,97027.50
2022-09-09T13:33:23.554Z,97030.38
2022-09-09T13:36:31.808Z,97025.78
2022-09-09T13:39:37.361Z,97020.56
2022-09-09T13:42:44.113Z,97010.69
2022-09-09T13:45:57.434Z,97006.63
2022-09-09T13:49:03.770Z,97006.34
2022-09-09T13:52:11.654Z,97004.13
2022-09-09T13:55:14.770Z,96990.66
2022-09-09T13:58:20.162Z,97003.44
2022-09-09T14:01:26.403Z,97004.47
2022-09-09T14:04:33.745Z,97001.81
2022-09-09T14:07:38.804Z,97005.63
2022-09-09T14:10:41.659Z,97006.66
2022-09-09T14:13:44.385Z,97014.06
2022-09-09T14:16:47.131Z,97011.75
2022-09-09T14:19:51.591Z,97005.69
2022-09-09T14:22:54.527Z,96993.50
2022-09-09T14:25:57.428Z,96995.78
2022-09-09T14:29:01.855Z,96990.44
2022-09-09T14:32:08.314Z,96973.47
2022-09-09T14:35:15.108Z,96973.38
2022-09-09T14:38:19.188Z,96983.09
2022-09-09T14:41:23.686Z,96988.97
2022-09-09T14:44:26.860Z,96996.63
2022-09-09T14:47:30.230Z,97016.72
2022-09-09T14:50:35.873Z,97039.44
2022-09-09T14:53:38.898Z,97062.53
2022-09-09T14:56:41.802Z,97072.84
2022-09-09T14:59:44.574Z,97059.22
2022-09-09T15:02:47.337Z,97046.28
2022-09-09T15:05:52.255Z,97045.09
2022-09-09T15:08:58.719Z,97039.03
2022-09-09T15:12:02.852Z,97051.97
2022-09-09T15:15:06.692Z,97053.88
2022-09-09T15:18:09.426Z,97057.94
2022-09-09T15:21:14.506Z,97045.81
2022-09-09T15:24:17.924Z,97044.66
2022-09-09T15:27:20.860Z,97044.66
2022-09-09T15:30:23.675Z,97038.91
2022-09-09T15:33:26.432Z,97022.66
2022-09-09T15:36:33.066Z,97008.44
2022-09-09T15:39:38.919Z,96998.22
2022-09-09T15:42:41.865Z,96987.78
2022-09-09T15:45:44.716Z,96980.03
2022-09-09T15:48:49.066Z,96995.94
2022-09-09T15:51:58.387Z,96991.19
2022-09-09T15:55:01.671Z,96997.25
2022-09-09T15:58:04.444Z,96996.91
2022-09-09T16:01:08.747Z,97000.63
2022-09-09T16:04:12.117Z,96992.53
2022-09-09T16:07:16.439Z,97004.81
2022-09-09T16:10:19.443Z,96999.28
2022-09-09T16:13:22.159Z,97004.53
2022-09-09T16:16:26.856Z,97004.75
2022-09-09T16:19:29.638Z,96986.31
2022-09-09T16:22:33.733Z,96999.44
2022-09-09T16:25:36.587Z,97009.50
2022-09-09T16:28:40.090Z,97009.31
2022-09-09T16:31:43.815Z,97012.53
2022-09-09T16:34:46.843Z,97011.00
2022-09-09T16:37:50.951Z,97017.16
2022-09-09T16:40:53.830Z,97022.00
2022-09-09T16:43:57.724Z,97027.22
2022-09-09T16:47:01.453Z,97023.50
2022-09-09T16:50:04.301Z,97010.09
2022-09-09T16:53:09.751Z,97009.06
2022-09-09T16:56:14.596Z,97015.19
2022-09-09T16:59:19.302Z,97010.00
2022-09-09T17:02:22.453Z,97013.25
2022-09-09T17:05:26.155Z,97011.31
2022-09-09T17:08:31.290Z,97007.13
2022-09-09T17:11:34.607Z,97010.13
2022-09-09T17:14:37.698Z,97017.56
2022-09-09T17:17:40.444Z,97010.88
2022-09-09T17:20:47.210Z,97012.50
2022-09-09T17:23:52.212Z,97003.81
2022-09-09T17:26:55.450Z,97008.31
2022-09-09T17:29:58.449Z,97015.47
2022-09-09T17:33:01.407Z,97009.03
2022-09-09T17:36:09.431Z,97016.06
2022-09-09T17:39:13.770Z,97010.84
2022-09-09T17:42:16.815Z,97011.22
2022-09-09T17:45:20.206Z,97013.47
2022-09-09T17:48:23.061Z,97008.88
2022-09-09T17:51:28.887Z,97002.16
2022-09-09T17:54:33.294Z,97007.44
2022-09-09T17:57:36.423Z,96996.56
2022-09-09T18:00:39.225Z,96998.53
2022-09-09T18:03:43.568Z,97007.81
2022-09-09T18:06:48.765Z,97009.13
2022-09-09T18:09:52.996Z,97009.44
2022-09-09T18:12:56.993Z,97020.50
2022-09-09T18:16:00.137Z,97016.09
2022-09-09T18:19:04.421Z,97018.81
2022-09-09T18:22:07.921Z,97014.84
2022-09-09T18:25:12.267Z,97015.03
2022-09-09T18:28:15.239Z,97021.13
2022-09-09T18:31:20.671Z,97022.25
2022-09-09T18:34:25.711Z,97017.66
2022-09-09T18:37:28.555Z,97016.34
2022-09-09T18:40:33.525Z,97020.63
2022-09-09T18:43:36.424Z,97009.03
2022-09-09T18:46:39.917Z,97008.84
2022-09-09T18:49:42.829Z,97007.25
2022-09-09T18:52:45.698Z,97017.97
2022-09-09T18:55:59.291Z,97028.97
2022-09-09T18:59:04.015Z,97026.56
2022-09-09T19:02:06.773Z,97029.53
2022-09-09T19:05:10.039Z,97032.34
2022-09-09T19:08:12.939Z,97045.47
2022-09-09T19:11:19.604Z,97041.34
2022-09-09T19:14:22.917Z,97045.63
2022-09-09T19:17:26.538Z,97048.34
2022-09-09T19:20:29.404Z,97039.84
2022-09-09T19:23:33.191Z,97052.81
2022-09-09T19:26:40.582Z,97060.59
2022-09-09T19:29:44.565Z,97061.19
2022-09-09T19:32:53.709Z,97064.72
2022-09-09T19:35:59.284Z,97055.41
2022-09-09T19:39:03.308Z,97064.47
2022-09-09T19:42:07.545Z,97065.97
2022-09-09T19:45:10.893Z,97089.59
2022-09-09T19:48:14.370Z,97088.34
2022-09-09T19:51:19.495Z,97104.88
2022-09-09T19:54:22.360Z,97115.41
2022-09-09T19:57:30.301Z,97112.50
2022-09-09T20:00:34.442Z,97102.22
2022-09-09T20:03:38.261Z,97107.66
2022-09-09T20:06:42.775Z,97100.03
2022-09-09T20:09:45.725Z,97093.69
2022-09-09T20:12:49.857Z,97098.47
2022-09-09T20:16:00.380Z,97109.09
2022-09-09T20:19:06.113Z,97106.06
2022-09-09T20:22:09.228Z,97115.03
2022-09-09T20:25:12.001Z,97110.31
2022-09-09T20:28:16.215Z,97122.13
2022-09-09T20:31:22.582Z,97125.00
2022-09-09T20:34:27.345Z,97120.50
2022-09-09T20:37:31.903Z,97136.09
2022-09-09T20:40:37.167Z,97135.75
2022-09-09T20:43:42.212Z,97154.84
2022-09-09T20:46:48.955Z,97159.56
2022-09-09T20:49:52.082Z,97161.41
2022-09-09T20:52:55.062Z,97168.34
2022-09-09T20:56:00.986Z,97178.09
2022-09-09T20:59:10.303Z,97187.28
2022-09-09T21:02:13.308Z,97195.59
2022-09-09T21:05:19.630Z,97191.63
2022-09-09T21:08:25.650Z,97204.94
2022-09-09T21:11:28.662Z,97210.59
2022-09-09T21:14:33.028Z,97200.63
2022-09-09T21:17:35.949Z,97202.31
2022-09-09T21:20:38.836Z,97191.69
2022-09-09T21:23:42.147Z,97195.13
2022-09-09T21:26:45.004Z,97192.13
2022-09-09T21:29:50.091Z,97192.19
2022-09-09T21:32:53.825Z,97200.34
2022-09-09T21:36:02.958Z,97190.69
2022-09-09T21:39:06.400Z,97208.63
2022-09-09T21:42:09.668Z,97207.00
2022-09-09T21:45:14.919Z,97214.22
2022-09-09T21:48:19.889Z,97216.69
2022-09-09T21:51:23.466Z,97232.34
2022-09-09T21:54:28.674Z,97238.50
2022-09-09T21:57:31.739Z,97242.59
2022-09-09T22:00:36.553Z,97231.53
2022-09-09T22:03:40.510Z,97223.59
2022-09-09T22:06:43.987Z,97201.63
2022-09-09T22:09:47.172Z,97211.03
2022-09-09T22:12:50.324Z,97205.97
2022-09-09T22:15:58.403Z,97206.84
2022-09-09T22:19:02.589Z,97227.03
2022-09-09T22:22:05.686Z,97242.50
2022-09-09T22:25:09.490Z,97256.34
2022-09-09T22:28:15.863Z,97256.16
2022-09-09T22:31:20.859Z,97252.50
2022-09-09T22:34:24.165Z,97228.84
2022-09-09T22:37:27.012Z,97227.22
2022-09-09T22:40:29.994Z,97213.75
2022-09-09T22:43:34.019Z,97204.84
2022-09-09T22:46:38.552Z,97207.66
2022-09-09T22:49:42.001Z,97190.56
2022-09-09T22:52:44.868Z,97188.94
2022-09-09T22:55:58.590Z,97181.63
2022-09-09T22:59:01.491Z,97190.59
2022-09-09T23:02:05.889Z,97192.63
2022-09-09T23:05:09.584Z,97182.44
2022-09-09T23:08:12.804Z,97180.63
2022-09-09T23:11:16.090Z,97184.88
2022-09-09T23:14:19.059Z,97180.63
2022-09-09T23:17:23.266Z,97173.09
2022-09-09T23:20:26.619Z,97180.22
2022-09-09T23:23:29.684Z,97183.06
2022-09-09T23:26:33.034Z,97176.16
2022-09-09T23:29:35.888Z,97173.72
2022-09-09T23:32:40.126Z,97169.63
2022-09-09T23:35:43.872Z,97174.75
2022-09-09T23:38:47.464Z,97180.84
2022-09-09T23:41:51.303Z,97186.53
2022-09-09T23:44:54.116Z,97184.50
2022-09-09T23:47:58.240Z,97190.41
2022-09-09T23:51:01.089Z,97195.91
2022-09-09T23:54:06.283Z,97203.63
2022-09-09T23:57:09.095Z,97209.75
